Mannsville, Oklahoma
Current Conditions -  °F | °C
As of 4:55 PM on Wednesday 22 Oct 2014 (Local Time) from KADM Reporting Station
Clear Clear  
Wind Chill: 26°   Ceiling: Unl
Heat Index: 27°   Visibility: 10mi
Dew Point: 16°   Wind: 7mph
Humidity: 54%   Direction: 130°SE
Pressure: 30.07"   Gusts: NA
Location:  34.19°N, 96.88°W
Report Text: KADM 222155Z 13006KT 10SM SKC 26/16 A3007
Loading
Personal Weather Stations






























Interactive Weather Map
Tropical Storm Tracking
New forecast layout! Learn more

10-Day Weather Forecast

Advertisements
Track Severe Weather on mobile